createdAt,value
2022-10-09T00:00:02.337Z,80.65
2022-10-09T00:01:34.407Z,80.59
2022-10-09T00:03:06.765Z,80.31
2022-10-09T00:04:39.589Z,80.13
2022-10-09T00:06:14.607Z,80.33
2022-10-09T00:07:46.576Z,80.79
2022-10-09T00:09:19.729Z,80.85
2022-10-09T00:10:51.824Z,80.95
2022-10-09T00:12:23.944Z,80.92
2022-10-09T00:13:56.816Z,80.51
2022-10-09T00:15:28.926Z,80.38
2022-10-09T00:17:01.021Z,80.38
2022-10-09T00:18:33.890Z,80.20
2022-10-09T00:20:06.859Z,79.94
2022-10-09T00:21:38.910Z,80.00
2022-10-09T00:23:12.259Z,80.01
2022-10-09T00:24:44.247Z,80.39
2022-10-09T00:26:16.722Z,80.56
2022-10-09T00:27:49.696Z,80.72
2022-10-09T00:29:21.679Z,80.93
2022-10-09T00:30:54.202Z,81.14
2022-10-09T00:32:26.493Z,80.92
2022-10-09T00:33:58.481Z,81.02
2022-10-09T00:35:32.682Z,80.88
2022-10-09T00:37:04.705Z,81.04
2022-10-09T00:38:37.076Z,80.72
2022-10-09T00:40:09.291Z,80.63
2022-10-09T00:41:41.548Z,80.68
2022-10-09T00:43:18.854Z,80.64
2022-10-09T00:44:54.644Z,80.85
2022-10-09T00:46:33.908Z,80.73
2022-10-09T00:48:07.884Z,80.90
2022-10-09T00:49:42.713Z,81.00
2022-10-09T00:51:14.676Z,80.79
2022-10-09T00:52:47.988Z,80.66
2022-10-09T00:54:24.192Z,80.49
2022-10-09T00:55:56.585Z,80.85
2022-10-09T00:57:29.062Z,80.84
2022-10-09T00:59:01.562Z,80.84
2022-10-09T01:00:33.567Z,80.73
2022-10-09T01:02:05.823Z,80.70
2022-10-09T01:03:40.628Z,80.76
2022-10-09T01:05:13.871Z,80.34
2022-10-09T01:07:17.964Z,80.44
2022-10-09T01:09:23.583Z,80.57
2022-10-09T01:11:10.054Z,80.16
2022-10-09T01:12:51.921Z,79.86
2022-10-09T01:14:30.149Z,79.76
2022-10-09T01:16:04.053Z,79.86
2022-10-09T01:17:48.596Z,79.93
2022-10-09T01:19:36.416Z,79.88
2022-10-09T01:21:17.571Z,80.14
2022-10-09T01:23:04.321Z,80.29
2022-10-09T01:24:41.861Z,80.11
2022-10-09T01:26:17.164Z,80.17
2022-10-09T01:27:49.313Z,80.15
2022-10-09T01:29:22.036Z,80.50
2022-10-09T01:30:54.093Z,80.29
2022-10-09T01:32:33.670Z,79.90
2022-10-09T01:34:06.133Z,80.09
2022-10-09T01:35:39.246Z,80.23
2022-10-09T01:37:11.604Z,80.26
2022-10-09T01:38:44.820Z,80.04
2022-10-09T01:40:17.863Z,80.16
2022-10-09T01:41:51.646Z,80.37
2022-10-09T01:43:23.610Z,80.32
2022-10-09T01:44:55.543Z,80.13
2022-10-09T01:46:32.489Z,80.09
2022-10-09T01:48:05.148Z,80.19
2022-10-09T01:50:07.529Z,80.23
2022-10-09T01:51:54.140Z,80.11
2022-10-09T01:53:26.605Z,80.32
2022-10-09T01:55:04.415Z,80.52
2022-10-09T01:56:39.510Z,80.25
2022-10-09T01:58:21.172Z,80.37
2022-10-09T01:59:53.511Z,80.13
2022-10-09T02:01:34.180Z,79.93
2022-10-09T02:03:10.336Z,79.89
2022-10-09T02:04:43.824Z,79.75
2022-10-09T02:06:16.378Z,79.73
2022-10-09T02:07:48.466Z,79.83
2022-10-09T02:09:20.517Z,79.98
2022-10-09T02:10:55.525Z,79.98
2022-10-09T02:12:28.549Z,80.32
2022-10-09T02:14:00.631Z,80.45
2022-10-09T02:15:42.310Z,80.21
2022-10-09T02:17:22.590Z,80.09
2022-10-09T02:19:17.844Z,80.25
2022-10-09T02:20:55.491Z,79.96
2022-10-09T02:22:31.542Z,80.17
2022-10-09T02:24:07.501Z,80.01
2022-10-09T02:25:39.604Z,80.36
2022-10-09T02:27:12.818Z,80.52
2022-10-09T02:28:46.223Z,80.30
2022-10-09T02:30:18.217Z,80.02
2022-10-09T02:31:50.276Z,80.05
2022-10-09T02:33:33.432Z,80.05
2022-10-09T02:35:05.795Z,80.13
2022-10-09T02:36:38.459Z,80.20
2022-10-09T02:38:10.447Z,80.20
2022-10-09T02:39:43.957Z,80.46
2022-10-09T02:41:15.795Z,80.14
2022-10-09T02:42:47.918Z,80.19
2022-10-09T02:44:20.160Z,79.87
2022-10-09T02:45:52.203Z,80.00
2022-10-09T02:47:24.252Z,79.78
2022-10-09T02:48:56.158Z,79.84
2022-10-09T02:50:28.313Z,79.93
2022-10-09T02:52:00.332Z,79.93
2022-10-09T02:53:32.407Z,80.17
2022-10-09T02:55:04.671Z,79.89
2022-10-09T02:56:38.973Z,79.85
2022-10-09T02:58:11.284Z,79.70
2022-10-09T02:59:45.623Z,79.60
2022-10-09T03:01:18.104Z,79.63
2022-10-09T03:02:50.462Z,79.79
2022-10-09T03:04:22.632Z,79.78
2022-10-09T03:06:11.792Z,79.91
2022-10-09T03:07:51.421Z,79.74
2022-10-09T03:09:29.157Z,80.24
2022-10-09T03:11:03.581Z,80.12
2022-10-09T03:12:35.752Z,80.23
2022-10-09T03:14:07.710Z,80.13
2022-10-09T03:15:39.769Z,79.96
2022-10-09T03:17:11.726Z,79.93
2022-10-09T03:18:46.862Z,79.99
2022-10-09T03:20:18.915Z,80.11
2022-10-09T03:23:22.635Z,80.19
2022-10-09T03:24:54.732Z,80.14
2022-10-09T03:26:27.704Z,80.01
2022-10-09T03:27:59.675Z,79.92
2022-10-09T03:29:31.684Z,80.22
2022-10-09T03:31:04.201Z,80.35
2022-10-09T03:32:36.369Z,80.38
2022-10-09T03:34:08.457Z,80.85
2022-10-09T03:35:41.722Z,80.60
2022-10-09T03:37:13.699Z,80.58
2022-10-09T03:38:45.710Z,80.37
2022-10-09T03:40:17.690Z,80.14
2022-10-09T03:41:49.736Z,80.33
2022-10-09T03:43:21.696Z,80.51
2022-10-09T03:44:54.495Z,80.92
2022-10-09T03:46:26.535Z,81.25
2022-10-09T03:47:58.654Z,81.56
2022-10-09T03:49:30.662Z,81.68
2022-10-09T03:51:03.018Z,81.42
2022-10-09T03:52:36.647Z,81.26
2022-10-09T03:54:08.677Z,81.50
2022-10-09T03:55:40.810Z,81.57
2022-10-09T03:57:12.904Z,81.33
2022-10-09T03:58:44.910Z,80.95
2022-10-09T04:00:17.184Z,80.82
2022-10-09T04:01:49.250Z,80.90
2022-10-09T04:03:21.842Z,80.96
2022-10-09T04:04:53.957Z,81.14
2022-10-09T04:06:25.942Z,80.68
2022-10-09T04:07:57.935Z,80.84
2022-10-09T04:09:29.860Z,80.76
2022-10-09T04:11:02.173Z,80.62
2022-10-09T04:12:34.324Z,80.95
2022-10-09T04:14:07.067Z,80.90
2022-10-09T04:15:39.140Z,80.85
2022-10-09T04:17:11.148Z,81.14
2022-10-09T04:18:44.517Z,81.05
2022-10-09T04:21:49.216Z,80.66
2022-10-09T04:23:23.618Z,80.90
2022-10-09T04:24:55.618Z,81.21
2022-10-09T04:26:27.668Z,81.16
2022-10-09T04:27:59.611Z,80.88
2022-10-09T04:29:31.614Z,81.22
2022-10-09T04:31:04.621Z,81.45
2022-10-09T04:32:36.628Z,81.35
2022-10-09T04:34:08.649Z,81.50
2022-10-09T04:35:44.593Z,81.89
2022-10-09T04:37:16.829Z,82.05
2022-10-09T04:38:48.869Z,81.99
2022-10-09T04:40:20.853Z,82.05
2022-10-09T04:41:52.923Z,81.98
2022-10-09T04:43:25.061Z,82.22
2022-10-09T04:44:57.030Z,82.03
2022-10-09T04:46:29.095Z,81.80
2022-10-09T04:48:01.148Z,81.90
2022-10-09T04:49:33.244Z,81.63
2022-10-09T04:51:07.812Z,81.47
2022-10-09T04:52:39.827Z,81.52
2022-10-09T04:54:12.678Z,81.48
2022-10-09T04:55:46.490Z,81.84
2022-10-09T04:57:18.662Z,81.77
2022-10-09T04:58:53.099Z,81.78
2022-10-09T05:00:25.154Z,81.92
2022-10-09T05:02:00.361Z,81.96
2022-10-09T05:03:32.529Z,82.05
2022-10-09T05:05:04.960Z,82.21
2022-10-09T05:06:36.996Z,81.83
2022-10-09T05:08:09.102Z,81.50
2022-10-09T05:09:41.324Z,81.83
2022-10-09T05:11:19.146Z,81.95
2022-10-09T05:12:51.462Z,81.98
2022-10-09T05:14:23.775Z,82.14
2022-10-09T05:15:55.793Z,82.45
2022-10-09T05:17:28.199Z,82.53
2022-10-09T05:19:00.941Z,82.88
2022-10-09T05:20:32.920Z,82.96
2022-10-09T05:22:04.936Z,83.06
2022-10-09T05:23:37.012Z,83.32
2022-10-09T05:26:46.885Z,83.22
2022-10-09T05:28:18.997Z,83.48
2022-10-09T05:29:51.014Z,83.58
2022-10-09T05:31:26.012Z,83.14
2022-10-09T05:32:58.176Z,83.34
2022-10-09T05:34:30.558Z,83.32
2022-10-09T05:36:05.364Z,83.23
2022-10-09T05:37:37.359Z,83.25
2022-10-09T05:39:09.370Z,83.31
2022-10-09T05:40:52.463Z,83.24
2022-10-09T05:42:24.481Z,83.16
2022-10-09T05:44:01.359Z,83.32
2022-10-09T05:45:33.440Z,83.40
2022-10-09T05:47:05.476Z,83.46
2022-10-09T05:48:39.275Z,83.18
2022-10-09T05:50:11.269Z,83.09
2022-10-09T05:51:43.371Z,83.34
2022-10-09T05:55:02.201Z,83.17
2022-10-09T05:56:36.623Z,83.08
2022-10-09T05:58:08.942Z,83.35
2022-10-09T05:59:40.959Z,83.15
2022-10-09T06:01:13.164Z,83.45
2022-10-09T06:02:45.216Z,83.68
2022-10-09T06:04:23.269Z,83.73
2022-10-09T06:06:03.824Z,83.80
2022-10-09T06:07:35.829Z,83.71
2022-10-09T06:09:10.768Z,84.19
2022-10-09T06:10:43.059Z,84.21
2022-10-09T06:12:15.428Z,84.48
2022-10-09T06:13:48.530Z,84.36
2022-10-09T06:15:20.894Z,84.37
2022-10-09T06:16:53.254Z,84.67
2022-10-09T06:18:28.265Z,84.64
2022-10-09T06:20:00.488Z,84.69
2022-10-09T06:21:32.742Z,84.40
2022-10-09T06:23:05.182Z,84.30
2022-10-09T06:24:37.279Z,83.91
2022-10-09T06:26:11.887Z,83.91
2022-10-09T06:27:44.029Z,83.64
2022-10-09T06:29:16.236Z,83.61
2022-10-09T06:30:49.382Z,83.27
2022-10-09T06:32:21.729Z,83.12
2022-10-09T06:33:54.863Z,83.08
2022-10-09T06:35:27.282Z,83.13
2022-10-09T06:36:59.555Z,82.95
2022-10-09T06:38:31.955Z,82.79
2022-10-09T06:40:04.524Z,82.67
2022-10-09T06:41:36.904Z,82.38
2022-10-09T06:43:09.188Z,81.95
2022-10-09T06:44:43.781Z,81.91
2022-10-09T06:46:16.186Z,81.80
2022-10-09T06:47:48.551Z,81.76
2022-10-09T06:49:20.860Z,81.71
2022-10-09T06:50:53.170Z,81.58
2022-10-09T06:52:25.667Z,81.19
2022-10-09T06:53:59.909Z,80.97
2022-10-09T06:55:33.264Z,80.73
2022-10-09T06:57:05.101Z,80.07
2022-10-09T07:00:10.875Z,80.37
2022-10-09T07:01:43.520Z,80.64
2022-10-09T07:03:15.920Z,80.08
2022-10-09T07:04:48.359Z,79.80
2022-10-09T07:06:25.914Z,79.35
2022-10-09T07:07:58.218Z,79.13
2022-10-09T07:09:30.538Z,79.08
2022-10-09T07:11:12.195Z,78.81
2022-10-09T07:12:44.570Z,78.76
2022-10-09T07:14:16.936Z,78.43
2022-10-09T07:15:49.519Z,78.08
2022-10-09T07:17:21.884Z,77.76
2022-10-09T07:18:54.265Z,77.38
2022-10-09T07:20:26.324Z,77.13
2022-10-09T07:21:58.531Z,76.80
2022-10-09T07:23:31.893Z,76.75
2022-10-09T07:25:04.185Z,76.21
2022-10-09T07:26:38.680Z,75.80
2022-10-09T07:28:11.040Z,75.54
2022-10-09T07:29:43.325Z,75.36
2022-10-09T07:31:16.127Z,75.10
2022-10-09T07:32:48.705Z,75.07
2022-10-09T07:34:21.122Z,74.92
2022-10-09T07:35:57.451Z,74.91
2022-10-09T07:37:29.900Z,75.14
2022-10-09T07:39:02.366Z,74.75
2022-10-09T07:40:37.649Z,74.70
2022-10-09T07:42:09.920Z,74.23
2022-10-09T07:43:43.100Z,74.14
2022-10-09T07:45:15.349Z,73.94
2022-10-09T07:46:50.709Z,74.01
2022-10-09T07:48:22.974Z,73.45
2022-10-09T07:49:55.423Z,73.14
2022-10-09T08:15:41.111Z,68.84
2022-10-09T08:17:13.571Z,68.16
2022-10-09T08:18:45.956Z,68.46
2022-10-09T08:20:18.196Z,68.45
2022-10-09T08:21:50.667Z,66.91
2022-10-09T08:23:22.926Z,67.29
2022-10-09T08:24:55.231Z,67.42
2022-10-09T08:26:31.292Z,67.16
2022-10-09T08:28:04.831Z,66.03
2022-10-09T08:29:40.241Z,66.70
2022-10-09T08:31:17.291Z,66.65
2022-10-09T08:32:49.776Z,66.20
2022-10-09T08:34:22.266Z,66.18
2022-10-09T08:35:54.830Z,65.10
2022-10-09T08:37:27.097Z,64.64
2022-10-09T08:38:59.901Z,64.58
2022-10-09T08:41:19.819Z,63.94
2022-10-09T08:44:39.117Z,63.46
2022-10-09T08:46:22.905Z,63.60
2022-10-09T08:47:57.061Z,63.26
2022-10-09T08:49:37.611Z,61.59
2022-10-09T08:51:16.336Z,61.58
2022-10-09T08:53:08.766Z,61.92
2022-10-09T08:54:41.232Z,61.07
2022-10-09T08:56:15.263Z,60.36
2022-10-09T08:57:51.972Z,57.72
2022-10-09T08:59:24.234Z,58.20
2022-10-09T09:01:03.633Z,58.68
2022-10-09T09:02:52.869Z,56.67
2022-10-09T09:04:45.694Z,58.52
2022-10-09T09:06:26.944Z,57.86
2022-10-09T09:08:05.421Z,58.08
2022-10-09T09:09:59.302Z,56.71
2022-10-09T09:11:43.463Z,57.52
2022-10-09T09:13:43.547Z,57.53
2022-10-09T09:15:34.161Z,57.46
2022-10-09T09:17:24.561Z,57.35
2022-10-09T09:19:18.545Z,56.83
2022-10-09T09:20:55.854Z,56.68
2022-10-09T09:22:28.501Z,56.38
2022-10-09T09:24:04.083Z,55.87
2022-10-09T09:25:37.947Z,55.26
2022-10-09T09:27:14.746Z,55.98
2022-10-09T09:28:49.783Z,55.51
2022-10-09T09:30:25.783Z,54.64
2022-10-09T09:32:00.129Z,53.68
2022-10-09T09:34:05.067Z,52.46
2022-10-09T09:36:03.271Z,52.18
2022-10-09T09:37:37.853Z,50.78
2022-10-09T09:40:07.860Z,52.09
2022-10-09T09:41:06.282Z,52.05
2022-10-09T09:42:38.678Z,52.97
2022-10-09T09:44:12.350Z,53.27
2022-10-09T09:45:48.402Z,54.40
2022-10-09T09:47:45.015Z,54.73
2022-10-09T09:49:23.784Z,52.48
2022-10-09T09:51:16.119Z,50.49
2022-10-09T09:52:48.643Z,51.79
2022-10-09T09:54:29.036Z,50.77
2022-10-09T09:56:01.514Z,49.92
2022-10-09T09:57:37.593Z,50.10
2022-10-09T09:59:34.760Z,50.90
2022-10-09T10:01:08.045Z,48.42
2022-10-09T10:02:40.200Z,48.75
2022-10-09T10:04:19.978Z,49.16
2022-10-09T10:05:52.324Z,49.00
2022-10-09T10:07:35.861Z,49.34
2022-10-09T10:09:18.824Z,48.87
2022-10-09T10:10:53.915Z,48.90
2022-10-09T10:12:26.155Z,50.24
2022-10-09T10:13:58.591Z,50.97
2022-10-09T10:15:33.250Z,50.23
2022-10-09T10:17:05.525Z,47.68
2022-10-09T10:18:42.836Z,48.04
2022-10-09T10:20:18.646Z,48.32
2022-10-09T10:21:56.876Z,47.47
2022-10-09T10:23:55.643Z,46.72
2022-10-09T10:25:33.487Z,47.65
2022-10-09T10:27:34.555Z,47.62
2022-10-09T10:29:20.517Z,47.54
2022-10-09T10:30:53.133Z,47.12
2022-10-09T10:33:04.384Z,45.82
2022-10-09T10:34:44.245Z,46.24
2022-10-09T10:36:16.675Z,45.95
2022-10-09T10:38:10.514Z,47.18
2022-10-09T10:39:42.734Z,47.67
2022-10-09T10:41:24.942Z,45.94
2022-10-09T10:43:03.048Z,46.79
2022-10-09T10:44:51.233Z,45.98
2022-10-09T10:46:26.010Z,47.32
2022-10-09T10:47:59.383Z,47.40
2022-10-09T10:49:33.851Z,46.81
2022-10-09T10:51:44.748Z,46.79
2022-10-09T10:53:32.344Z,45.93
2022-10-09T10:55:21.596Z,46.87
2022-10-09T10:57:25.117Z,48.46
2022-10-09T10:59:21.599Z,48.70
2022-10-09T11:01:05.509Z,48.17
2022-10-09T11:02:47.719Z,48.52
2022-10-09T11:04:23.222Z,48.39
2022-10-09T11:06:19.524Z,47.08
2022-10-09T11:08:16.231Z,46.42
2022-10-09T11:10:06.912Z,47.11
2022-10-09T11:13:41.932Z,45.46
2022-10-09T11:15:27.129Z,46.18
2022-10-09T11:17:11.110Z,45.92
2022-10-09T11:19:11.908Z,45.12
2022-10-09T11:21:22.163Z,45.88
2022-10-09T11:23:11.803Z,45.82
2022-10-09T11:24:58.317Z,45.33
2022-10-09T11:27:03.136Z,45.42
2022-10-09T11:28:41.167Z,46.11
2022-10-09T11:30:15.933Z,45.80
2022-10-09T11:31:57.883Z,44.32
2022-10-09T11:33:39.131Z,45.98
2022-10-09T11:35:25.812Z,43.56
2022-10-09T11:36:59.685Z,44.19
2022-10-09T11:38:37.132Z,44.59
2022-10-09T11:40:18.730Z,45.67
2022-10-09T11:43:26.001Z,46.73
2022-10-09T11:45:03.528Z,47.27
2022-10-09T11:47:04.701Z,45.10
2022-10-09T11:49:08.545Z,45.42
2022-10-09T11:50:53.609Z,46.16
2022-10-09T11:52:47.366Z,45.67
2022-10-09T11:54:22.205Z,46.97
2022-10-09T11:56:32.897Z,46.46
2022-10-09T11:58:25.068Z,44.83
2022-10-09T12:00:07.850Z,45.92
2022-10-09T12:01:45.171Z,45.50
2022-10-09T12:03:33.712Z,44.47
2022-10-09T12:05:19.498Z,44.79
2022-10-09T12:06:55.100Z,44.23
2022-10-09T12:08:27.987Z,45.23
2022-10-09T12:10:08.974Z,45.61
2022-10-09T12:11:41.493Z,44.63
2022-10-09T12:13:44.672Z,45.10
2022-10-09T12:15:29.505Z,45.04
2022-10-09T12:17:02.320Z,46.03
2022-10-09T12:18:37.642Z,45.14
2022-10-09T12:20:19.231Z,46.72
2022-10-09T12:21:57.466Z,44.15
2022-10-09T12:23:32.886Z,43.70
2022-10-09T12:25:29.162Z,45.22
2022-10-09T12:27:03.736Z,45.02
2022-10-09T12:28:40.107Z,45.37
2022-10-09T12:30:15.075Z,45.38
2022-10-09T12:31:47.992Z,45.17
2022-10-09T12:33:31.158Z,44.74
2022-10-09T12:35:15.414Z,45.06
2022-10-09T12:36:47.810Z,45.57
2022-10-09T12:38:26.576Z,46.66
2022-10-09T12:40:09.700Z,44.75
2022-10-09T12:41:44.479Z,45.37
2022-10-09T12:43:19.517Z,45.26
2022-10-09T12:44:54.540Z,45.60
2022-10-09T12:46:27.525Z,46.38
2022-10-09T12:48:01.640Z,45.77
2022-10-09T12:49:34.239Z,44.02
2022-10-09T12:51:28.570Z,44.31
2022-10-09T12:53:04.350Z,44.83
2022-10-09T12:54:43.044Z,44.75
2022-10-09T12:56:25.553Z,44.90
2022-10-09T12:58:03.937Z,44.95
2022-10-09T12:59:36.377Z,44.32
2022-10-09T13:01:14.189Z,44.18
2022-10-09T13:02:46.720Z,44.66
2022-10-09T13:04:28.647Z,43.56
2022-10-09T13:06:02.276Z,43.62
2022-10-09T13:07:34.776Z,44.45
2022-10-09T13:09:08.243Z,44.54
2022-10-09T13:10:40.538Z,43.77
2022-10-09T13:12:22.778Z,43.66
2022-10-09T13:13:55.605Z,43.43
2022-10-09T13:15:37.849Z,43.21
2022-10-09T13:17:33.057Z,43.01
2022-10-09T13:19:05.493Z,44.14
2022-10-09T13:20:37.796Z,44.59
2022-10-09T13:22:21.638Z,45.33
2022-10-09T13:23:54.253Z,45.15
2022-10-09T13:25:29.006Z,45.49
2022-10-09T13:27:01.337Z,44.37
2022-10-09T13:28:33.790Z,45.49
2022-10-09T13:30:07.438Z,45.74
2022-10-09T13:31:43.734Z,45.84
2022-10-09T13:33:17.197Z,45.42
2022-10-09T13:34:49.415Z,44.17
2022-10-09T13:36:21.665Z,44.07
2022-10-09T13:37:54.039Z,44.28
2022-10-09T13:39:26.548Z,44.17
2022-10-09T13:40:59.242Z,44.17
2022-10-09T13:42:37.329Z,44.07
2022-10-09T13:44:09.662Z,43.30
2022-10-09T13:45:42.659Z,44.27
2022-10-09T13:47:15.215Z,44.66
2022-10-09T13:48:47.491Z,43.99
2022-10-09T13:50:20.234Z,43.60
2022-10-09T13:51:52.633Z,43.49
2022-10-09T13:53:24.996Z,43.42
2022-10-09T13:54:57.326Z,44.24
2022-10-09T13:56:30.029Z,44.43
2022-10-09T13:58:02.260Z,44.36
2022-10-09T13:59:34.828Z,43.89
2022-10-09T14:01:09.638Z,44.20
2022-10-09T14:02:42.058Z,44.54
2022-10-09T14:04:14.288Z,45.89
2022-10-09T14:05:46.413Z,45.24
2022-10-09T14:07:18.999Z,46.27
2022-10-09T14:08:51.586Z,45.62
2022-10-09T14:10:24.135Z,46.25
2022-10-09T14:11:56.638Z,46.32
2022-10-09T14:13:32.716Z,46.76
2022-10-09T14:15:05.682Z,46.31
2022-10-09T14:16:38.022Z,45.60
2022-10-09T14:18:10.369Z,44.00
2022-10-09T14:19:42.786Z,44.98
2022-10-09T14:21:16.321Z,45.69
2022-10-09T14:22:48.835Z,45.46
2022-10-09T14:24:21.359Z,45.75
2022-10-09T14:25:53.579Z,46.34
2022-10-09T14:27:25.942Z,46.62
2022-10-09T14:29:00.487Z,45.02
2022-10-09T14:32:09.522Z,45.24
2022-10-09T14:33:42.272Z,45.00
2022-10-09T14:35:17.114Z,45.09
2022-10-09T14:36:53.776Z,45.22
2022-10-09T14:38:26.090Z,44.86
2022-10-09T14:39:58.497Z,45.46
2022-10-09T14:41:34.290Z,44.93
2022-10-09T14:43:09.178Z,44.75
2022-10-09T14:44:41.745Z,44.95
2022-10-09T14:46:17.585Z,44.92
2022-10-09T14:47:49.901Z,44.38
2022-10-09T14:49:25.280Z,44.87
2022-10-09T14:51:03.287Z,44.78
2022-10-09T14:52:35.569Z,44.94
2022-10-09T14:54:08.645Z,44.43
2022-10-09T14:55:40.991Z,45.45
2022-10-09T14:57:13.567Z,45.45
2022-10-09T14:58:46.540Z,45.03
2022-10-09T15:00:18.946Z,45.55
2022-10-09T15:01:51.276Z,45.71
2022-10-09T15:03:23.853Z,45.73
2022-10-09T15:04:56.396Z,46.19
2022-10-09T15:06:28.633Z,46.33
2022-10-09T15:08:01.172Z,46.34
2022-10-09T15:09:33.460Z,46.72
2022-10-09T15:11:06.691Z,46.91
2022-10-09T15:12:38.851Z,47.22
2022-10-09T15:14:11.479Z,47.39
2022-10-09T15:15:43.686Z,47.94
2022-10-09T15:17:16.020Z,48.21
2022-10-09T15:18:52.629Z,48.39
2022-10-09T15:20:25.153Z,48.90
2022-10-09T15:21:57.398Z,49.19
2022-10-09T15:23:30.306Z,49.93
2022-10-09T15:25:02.866Z,49.89
2022-10-09T15:26:38.957Z,50.01
2022-10-09T15:28:11.539Z,50.46
2022-10-09T15:29:43.833Z,50.30
2022-10-09T15:31:33.914Z,51.56
2022-10-09T15:33:06.262Z,51.51
2022-10-09T15:34:40.995Z,52.82
2022-10-09T15:36:13.606Z,52.24
2022-10-09T15:37:45.818Z,52.25
2022-10-09T15:40:51.985Z,53.88
2022-10-09T15:42:24.306Z,54.10
2022-10-09T15:44:02.038Z,54.92
2022-10-09T15:45:35.466Z,55.41
2022-10-09T15:47:07.949Z,55.94
2022-10-09T15:48:40.423Z,56.03
2022-10-09T15:50:12.811Z,55.64
2022-10-09T15:51:45.352Z,55.95
2022-10-09T15:53:22.972Z,56.34
2022-10-09T15:54:55.303Z,56.43
2022-10-09T15:56:28.276Z,57.16
2022-10-09T15:58:00.534Z,57.54
2022-10-09T15:59:36.591Z,58.06
2022-10-09T16:01:11.585Z,57.69
2022-10-09T16:02:43.974Z,58.83
2022-10-09T16:04:16.370Z,59.70
2022-10-09T16:05:53.324Z,60.39
2022-10-09T16:07:25.735Z,60.80
2022-10-09T16:08:58.878Z,60.80
2022-10-09T16:10:31.337Z,61.05
2022-10-09T16:12:04.214Z,61.36
2022-10-09T16:13:42.514Z,61.50
2022-10-09T16:15:14.840Z,61.83
2022-10-09T16:16:48.976Z,61.65
2022-10-09T16:18:23.179Z,61.62
2022-10-09T16:19:55.627Z,63.37
2022-10-09T16:21:29.419Z,64.12
2022-10-09T16:23:01.895Z,64.23
2022-10-09T16:24:34.363Z,64.51
2022-10-09T16:26:06.888Z,64.87
2022-10-09T16:27:39.176Z,64.88
2022-10-09T16:29:11.618Z,65.12
2022-10-09T16:30:45.054Z,65.32
2022-10-09T16:32:17.213Z,65.53
2022-10-09T16:33:49.679Z,65.93
2022-10-09T16:35:23.066Z,65.77
2022-10-09T16:36:55.739Z,65.85
2022-10-09T16:38:28.068Z,66.18
2022-10-09T16:40:00.703Z,66.83
2022-10-09T16:41:33.198Z,67.11
2022-10-09T16:43:05.574Z,67.08
2022-10-09T16:44:38.112Z,67.49
2022-10-09T16:46:19.974Z,67.25
2022-10-09T16:47:52.411Z,67.69
2022-10-09T16:49:25.193Z,67.78
2022-10-09T16:50:58.882Z,67.75
2022-10-09T16:52:31.183Z,67.97
2022-10-09T16:54:05.422Z,68.11
2022-10-09T16:55:37.997Z,68.24
2022-10-09T16:57:10.398Z,68.58
2022-10-09T16:58:43.756Z,68.99
2022-10-09T17:00:19.106Z,69.33
2022-10-09T17:01:51.977Z,69.41
2022-10-09T17:03:24.323Z,69.25
2022-10-09T17:04:56.628Z,69.64
2022-10-09T17:06:29.036Z,69.37
2022-10-09T17:08:13.486Z,69.70
2022-10-09T17:09:45.578Z,69.94
2022-10-09T17:11:21.291Z,70.34
2022-10-09T17:12:53.519Z,70.45
2022-10-09T17:14:25.616Z,70.76
2022-10-09T17:15:57.965Z,70.72
2022-10-09T17:17:30.232Z,70.68
2022-10-09T17:19:03.175Z,70.82
2022-10-09T17:20:39.364Z,70.70
2022-10-09T17:22:11.713Z,70.83
2022-10-09T17:23:44.211Z,71.01
2022-10-09T17:25:16.572Z,71.21
2022-10-09T17:26:49.175Z,71.10
2022-10-09T17:28:21.916Z,71.10
2022-10-09T17:29:56.624Z,71.10
2022-10-09T17:31:29.439Z,71.24
2022-10-09T17:33:02.760Z,71.26
2022-10-09T17:34:35.090Z,71.31
2022-10-09T17:36:11.508Z,71.43
2022-10-09T17:37:43.759Z,71.69
2022-10-09T17:39:17.294Z,72.02
2022-10-09T17:40:49.648Z,72.21
2022-10-09T17:42:21.943Z,72.36
2022-10-09T17:43:56.139Z,72.36
2022-10-09T17:45:28.352Z,72.25
2022-10-09T17:47:01.390Z,72.45
2022-10-09T17:48:35.091Z,72.66
2022-10-09T17:50:08.027Z,72.69
2022-10-09T17:51:40.838Z,72.73
2022-10-09T17:53:14.907Z,72.75
2022-10-09T17:54:47.228Z,72.69
2022-10-09T17:56:19.565Z,72.74
2022-10-09T17:57:53.814Z,72.75
2022-10-09T17:59:26.227Z,72.56
2022-10-09T18:00:58.629Z,72.65
2022-10-09T18:02:31.138Z,72.49
2022-10-09T18:04:03.588Z,72.85
2022-10-09T18:05:46.662Z,72.83
2022-10-09T18:07:20.583Z,73.05
2022-10-09T18:08:55.394Z,73.22
2022-10-09T18:10:27.712Z,73.19
2022-10-09T18:12:00.047Z,73.70
2022-10-09T18:13:32.500Z,73.70
2022-10-09T18:15:05.319Z,73.74
2022-10-09T18:16:38.851Z,74.13
2022-10-09T18:18:12.258Z,74.11
2022-10-09T18:19:44.580Z,74.25
2022-10-09T18:21:18.027Z,74.19
2022-10-09T18:22:50.374Z,74.31
2022-10-09T18:24:22.661Z,74.54
2022-10-09T18:25:54.896Z,75.10
2022-10-09T18:27:29.408Z,74.98
2022-10-09T18:29:01.931Z,74.70
2022-10-09T18:30:34.593Z,74.59
2022-10-09T18:32:07.027Z,74.52
2022-10-09T18:33:39.471Z,74.41
2022-10-09T18:35:11.848Z,74.33
2022-10-09T18:36:44.501Z,74.41
2022-10-09T18:38:17.372Z,74.81
2022-10-09T18:39:49.834Z,74.99
2022-10-09T18:41:23.389Z,74.87
2022-10-09T18:42:55.737Z,74.62
2022-10-09T18:44:28.138Z,74.47
2022-10-09T18:46:01.298Z,74.18
2022-10-09T18:47:35.036Z,74.23
2022-10-09T18:49:09.735Z,74.22
2022-10-09T18:50:42.283Z,74.18
2022-10-09T18:52:15.003Z,74.25
2022-10-09T18:55:20.726Z,74.00
2022-10-09T18:56:53.486Z,74.01
2022-10-09T18:58:25.908Z,73.90
2022-10-09T18:59:58.606Z,74.01
2022-10-09T19:01:31.000Z,74.04
2022-10-09T19:03:03.309Z,74.02
2022-10-09T19:04:35.719Z,74.14
2022-10-09T19:06:08.402Z,73.93
2022-10-09T19:07:40.955Z,74.32
2022-10-09T19:09:13.702Z,74.21
2022-10-09T19:10:52.946Z,74.37
2022-10-09T19:12:25.875Z,74.41
2022-10-09T19:14:00.692Z,74.83
2022-10-09T19:15:32.668Z,74.46
2022-10-09T19:17:05.023Z,74.47
2022-10-09T19:18:37.696Z,74.43
2022-10-09T19:20:09.857Z,74.88
2022-10-09T19:21:44.232Z,75.12
2022-10-09T19:23:17.213Z,75.38
2022-10-09T19:24:49.701Z,75.54
2022-10-09T19:26:22.837Z,75.92
2022-10-09T19:27:54.878Z,76.26
2022-10-09T19:29:27.790Z,76.61
2022-10-09T19:31:02.954Z,76.62
2022-10-09T19:32:35.121Z,76.59
2022-10-09T19:34:07.665Z,76.68
2022-10-09T19:35:52.043Z,76.59
2022-10-09T19:37:27.460Z,76.80
2022-10-09T19:39:02.863Z,77.01
2022-10-09T19:40:35.213Z,76.66
2022-10-09T19:42:07.264Z,76.66
2022-10-09T19:43:39.697Z,76.73
2022-10-09T19:45:11.748Z,76.71
2022-10-09T19:46:43.950Z,76.58
2022-10-09T19:48:17.489Z,76.81
2022-10-09T19:49:49.763Z,76.75
2022-10-09T19:51:26.894Z,76.90
2022-10-09T19:52:59.310Z,77.02
2022-10-09T19:54:33.028Z,77.09
2022-10-09T19:56:13.254Z,77.21
2022-10-09T19:57:46.776Z,77.29
2022-10-09T19:59:19.364Z,77.48
2022-10-09T20:00:51.698Z,77.59
2022-10-09T20:02:23.802Z,77.54
2022-10-09T20:04:04.957Z,77.70
2022-10-09T20:05:37.388Z,77.61
2022-10-09T20:07:12.700Z,77.48
2022-10-09T20:08:48.546Z,77.41
2022-10-09T20:10:20.660Z,77.48
2022-10-09T20:11:52.717Z,77.32
2022-10-09T20:13:24.714Z,77.45
2022-10-09T20:14:56.706Z,77.25
2022-10-09T20:16:32.371Z,77.31
2022-10-09T20:18:04.445Z,77.41
2022-10-09T20:19:36.541Z,77.23
2022-10-09T20:21:10.169Z,77.10
2022-10-09T20:22:42.302Z,77.03
2022-10-09T20:24:14.463Z,77.11
2022-10-09T20:25:47.864Z,77.22
2022-10-09T20:27:19.733Z,77.02
2022-10-09T20:28:54.137Z,77.14
2022-10-09T20:30:26.143Z,77.31
2022-10-09T20:31:58.143Z,77.36
2022-10-09T20:33:30.231Z,77.13
2022-10-09T20:35:02.901Z,77.18
2022-10-09T20:36:37.355Z,77.31
2022-10-09T20:38:09.392Z,77.16
2022-10-09T20:39:41.518Z,77.33
2022-10-09T20:41:13.795Z,77.43
2022-10-09T20:42:45.799Z,77.64
2022-10-09T20:44:17.874Z,77.79
2022-10-09T20:45:49.933Z,77.48
2022-10-09T20:47:21.927Z,77.57
2022-10-09T20:48:54.575Z,77.33
2022-10-09T20:50:26.684Z,77.56
2022-10-09T20:51:58.778Z,77.61
2022-10-09T20:53:31.248Z,77.66
2022-10-09T20:55:03.326Z,77.59
2022-10-09T20:56:36.935Z,77.87
2022-10-09T20:58:09.061Z,77.77
2022-10-09T20:59:41.262Z,77.75
2022-10-09T21:01:15.620Z,77.52
2022-10-09T21:02:47.814Z,77.52
2022-10-09T21:04:20.153Z,77.54
2022-10-09T21:05:55.268Z,77.87
2022-10-09T21:07:27.267Z,78.20
2022-10-09T21:08:59.328Z,78.23
2022-10-09T21:10:31.329Z,78.05